createdAt,value
2023-04-25T00:00:15.359Z,93.26
2023-04-25T00:01:06.174Z,93.26
2023-04-25T00:01:56.937Z,93.26
2023-04-25T00:02:48.111Z,93.36
2023-04-25T00:03:39.200Z,93.26
2023-04-25T00:04:30.306Z,93.32
2023-04-25T00:05:21.403Z,93.32
2023-04-25T00:06:12.161Z,93.32
2023-04-25T00:07:03.000Z,93.32
2023-04-25T00:07:53.738Z,93.42
2023-04-25T00:08:44.542Z,93.42
2023-04-25T00:09:35.328Z,93.21
2023-04-25T00:10:26.102Z,93.12
2023-04-25T00:11:16.910Z,93.01
2023-04-25T00:12:07.691Z,92.91
2023-04-25T00:12:58.482Z,92.91
2023-04-25T00:13:49.449Z,92.80
2023-04-25T00:14:40.262Z,92.70
2023-04-25T00:15:31.045Z,92.70
2023-04-25T00:16:21.936Z,92.70
2023-04-25T00:17:12.652Z,92.60
2023-04-25T00:18:03.553Z,92.40
2023-04-25T00:18:54.358Z,92.08
2023-04-25T00:19:45.148Z,91.88
2023-04-25T00:20:35.974Z,91.67
2023-04-25T00:21:26.768Z,91.47
2023-04-25T00:22:17.579Z,91.27
2023-04-25T00:23:08.344Z,90.95
2023-04-25T00:23:59.111Z,90.85
2023-04-25T00:24:49.919Z,90.75
2023-04-25T00:25:40.696Z,90.44
2023-04-25T00:26:31.476Z,90.44
2023-04-25T00:27:22.269Z,90.34
2023-04-25T00:28:13.069Z,90.28
2023-04-25T00:29:03.867Z,90.14
2023-04-25T00:29:54.894Z,90.08
2023-04-25T00:30:45.677Z,90.08
2023-04-25T00:31:36.513Z,90.08
2023-04-25T00:32:27.271Z,89.97
2023-04-25T00:33:18.058Z,89.87
2023-04-25T00:34:08.833Z,89.66
2023-04-25T00:34:59.625Z,89.46
2023-04-25T00:35:50.426Z,89.46
2023-04-25T00:36:41.216Z,89.46
2023-04-25T00:37:32.089Z,89.56
2023-04-25T00:38:22.829Z,89.56
2023-04-25T00:39:13.608Z,89.56
2023-04-25T00:40:04.423Z,89.56
2023-04-25T00:40:55.238Z,89.46
2023-04-25T00:41:46.017Z,89.36
2023-04-25T00:42:36.808Z,89.46
2023-04-25T00:43:27.579Z,89.36
2023-04-25T00:44:18.356Z,89.36
2023-04-25T00:45:09.167Z,89.36
2023-04-25T00:45:59.941Z,89.25
2023-04-25T00:46:50.823Z,89.25
2023-04-25T00:47:41.681Z,89.25
2023-04-25T00:48:32.414Z,89.25
2023-04-25T00:49:23.194Z,89.15
2023-04-25T00:50:13.987Z,89.04
2023-04-25T00:51:04.780Z,88.84
2023-04-25T00:51:55.554Z,88.64
2023-04-25T00:52:46.360Z,88.64
2023-04-25T00:53:37.126Z,88.43
2023-04-25T00:54:27.919Z,88.23
2023-04-25T00:55:18.710Z,88.23
2023-04-25T00:56:09.506Z,88.23
2023-04-25T00:57:00.291Z,88.33
2023-04-25T00:57:51.083Z,88.53
2023-04-25T00:58:41.900Z,88.64
2023-04-25T00:59:32.698Z,88.74
2023-04-25T01:00:23.496Z,88.84
2023-04-25T01:01:14.327Z,88.95
2023-04-25T01:02:05.163Z,88.95
2023-04-25T01:02:56.031Z,88.84
2023-04-25T01:03:46.916Z,88.74
2023-04-25T01:04:37.646Z,88.64
2023-04-25T01:05:28.433Z,88.53
2023-04-25T01:06:19.229Z,88.43
2023-04-25T01:07:10.001Z,88.33
2023-04-25T01:08:00.812Z,88.43
2023-04-25T01:08:51.573Z,88.53
2023-04-25T01:09:42.377Z,88.53
2023-04-25T01:10:33.198Z,88.33
2023-04-25T01:11:23.983Z,88.23
2023-04-25T01:12:14.764Z,88.12
2023-04-25T01:13:05.555Z,88.12
2023-04-25T01:13:56.334Z,87.92
2023-04-25T01:14:47.140Z,87.82
2023-04-25T01:15:37.929Z,87.85
2023-04-25T01:16:28.749Z,87.75
2023-04-25T01:17:19.511Z,87.75
2023-04-25T01:18:10.354Z,87.65
2023-04-25T01:19:01.117Z,87.75
2023-04-25T01:19:51.892Z,87.75
2023-04-25T01:20:42.700Z,87.85
2023-04-25T01:21:33.472Z,87.75
2023-04-25T01:22:24.267Z,87.65
2023-04-25T01:23:15.070Z,87.55
2023-04-25T01:24:05.834Z,87.45
2023-04-25T01:24:56.625Z,87.13
2023-04-25T01:25:47.428Z,86.93
2023-04-25T01:26:38.209Z,86.72
2023-04-25T01:27:28.998Z,86.83
2023-04-25T01:28:19.792Z,86.62
2023-04-25T01:31:10.999Z,86.42
2023-04-25T01:31:41.266Z,86.52
2023-04-25T01:32:32.048Z,86.52
2023-04-25T01:33:22.784Z,86.72
2023-04-25T01:34:13.573Z,86.52
2023-04-25T01:35:04.343Z,86.32
2023-04-25T01:35:55.155Z,86.15
2023-04-25T01:36:45.933Z,86.05
2023-04-25T01:37:36.724Z,86.05
2023-04-25T01:38:27.560Z,86.05
2023-04-25T01:39:18.312Z,85.84
2023-04-25T01:40:09.128Z,85.94
2023-04-25T01:40:59.915Z,85.84
2023-04-25T01:41:50.714Z,85.84
2023-04-25T01:42:41.508Z,85.94
2023-04-25T01:43:32.284Z,86.05
2023-04-25T01:44:23.083Z,86.05
2023-04-25T01:45:13.844Z,85.94
2023-04-25T01:46:04.653Z,85.84
2023-04-25T01:46:55.456Z,85.74
2023-04-25T01:47:46.225Z,85.74
2023-04-25T01:48:37.021Z,85.84
2023-04-25T01:49:27.813Z,86.05
2023-04-25T01:50:18.652Z,86.05
2023-04-25T01:51:09.404Z,85.94
2023-04-25T01:52:00.207Z,85.84
2023-04-25T01:52:51.025Z,85.74
2023-04-25T01:53:41.862Z,85.53
2023-04-25T01:54:32.617Z,85.33
2023-04-25T01:55:23.400Z,84.91
2023-04-25T01:56:14.179Z,84.71
2023-04-25T01:57:04.973Z,84.81
2023-04-25T01:57:55.765Z,84.50
2023-04-25T01:58:46.534Z,84.50
2023-04-25T01:59:37.312Z,84.50
2023-04-25T02:00:28.106Z,84.50
2023-04-25T02:01:18.962Z,84.50
2023-04-25T02:02:09.759Z,84.50
2023-04-25T02:03:00.689Z,84.61
2023-04-25T02:03:51.773Z,84.50
2023-04-25T02:04:42.516Z,84.40
2023-04-25T02:05:33.325Z,84.30
2023-04-25T02:06:24.110Z,84.09
2023-04-25T02:07:14.895Z,84.09
2023-04-25T02:08:05.692Z,83.99
2023-04-25T02:08:56.498Z,84.13
2023-04-25T02:13:05.672Z,83.51
2023-04-25T02:13:56.461Z,83.20
2023-04-25T02:14:47.242Z,83.11
2023-04-25T02:15:38.074Z,83.00
2023-04-25T02:16:28.954Z,82.79
2023-04-25T02:17:19.829Z,82.79
2023-04-25T02:18:10.705Z,82.79
2023-04-25T02:19:01.567Z,82.79
2023-04-25T02:19:52.368Z,82.69
2023-04-25T02:20:43.169Z,82.28
2023-04-25T02:21:33.943Z,82.18
2023-04-25T02:22:24.709Z,81.67
2023-04-25T02:23:15.498Z,81.56
2023-04-25T02:24:06.301Z,81.25
2023-04-25T02:24:57.053Z,81.05
2023-04-25T02:25:47.838Z,81.15
2023-04-25T02:26:38.615Z,81.05
2023-04-25T02:27:29.413Z,80.94
2023-04-25T02:28:20.193Z,80.84
2023-04-25T02:29:10.995Z,80.84
2023-04-25T02:30:01.772Z,80.84
2023-04-25T02:30:52.583Z,80.74
2023-04-25T02:31:43.419Z,80.53
2023-04-25T02:32:34.161Z,80.33
2023-04-25T02:33:24.940Z,80.43
2023-04-25T02:34:15.722Z,80.47
2023-04-25T02:35:06.478Z,80.57
2023-04-25T02:35:57.262Z,80.47
2023-04-25T02:36:48.042Z,80.36
2023-04-25T02:37:38.849Z,80.05
2023-04-25T02:38:29.608Z,79.95
2023-04-25T02:39:20.413Z,79.95
2023-04-25T02:40:11.170Z,80.05
2023-04-25T02:41:01.954Z,80.05
2023-04-25T02:41:52.727Z,79.95
2023-04-25T02:42:43.527Z,79.95
2023-04-25T02:43:34.259Z,79.95
2023-04-25T02:44:24.982Z,79.95
2023-04-25T02:45:15.690Z,79.75
2023-04-25T02:46:06.448Z,79.64
2023-04-25T02:46:57.284Z,79.75
2023-04-25T02:47:56.187Z,79.64
2023-04-25T02:48:38.964Z,79.64
2023-04-25T02:49:29.742Z,79.64
2023-04-25T02:50:20.515Z,79.64
2023-04-25T02:51:11.303Z,79.75
2023-04-25T02:52:02.091Z,79.64
2023-04-25T02:52:52.884Z,79.54
2023-04-25T02:53:43.670Z,79.44
2023-04-25T02:54:34.476Z,79.33
2023-04-25T02:55:27.773Z,79.33
2023-04-25T02:56:16.409Z,79.33
2023-04-25T02:57:07.188Z,79.54
2023-04-25T02:57:58.011Z,79.44
2023-04-25T02:58:48.801Z,79.33
2023-04-25T02:59:39.611Z,79.13
2023-04-25T03:00:30.398Z,79.13
2023-04-25T03:01:21.208Z,79.13
2023-04-25T03:02:11.868Z,79.03
2023-04-25T03:03:02.689Z,78.82
2023-04-25T03:03:53.646Z,78.82
2023-04-25T03:04:44.531Z,78.51
2023-04-25T03:05:35.201Z,78.41
2023-04-25T03:06:26.441Z,78.41
2023-04-25T03:07:17.363Z,78.41
2023-04-25T03:08:08.346Z,78.51
2023-04-25T03:08:59.513Z,78.61
2023-04-25T03:09:50.366Z,78.51
2023-04-25T03:10:41.382Z,78.41
2023-04-25T03:11:32.592Z,78.41
2023-04-25T03:12:23.294Z,78.41
2023-04-25T03:13:39.387Z,78.44
2023-04-25T03:14:17.057Z,78.44
2023-04-25T03:15:17.136Z,78.44
2023-04-25T03:19:09.240Z,78.24
2023-04-25T03:23:48.866Z,78.24
2023-04-25T03:24:34.441Z,78.14
2023-04-25T03:26:47.931Z,77.93
2023-04-25T03:34:28.865Z,78.07
2023-04-25T03:34:59.871Z,78.07
2023-04-25T03:37:48.739Z,77.97
2023-04-25T03:40:19.197Z,78.17
2023-04-25T03:41:12.531Z,77.76
2023-04-25T03:41:42.472Z,77.66
2023-04-25T03:42:45.983Z,77.76
2023-04-25T03:43:46.959Z,77.86
2023-04-25T03:47:30.645Z,77.76
2023-04-25T03:48:21.478Z,77.76
2023-04-25T03:49:12.126Z,77.76
2023-04-25T03:50:03.012Z,77.66
2023-04-25T03:50:53.903Z,77.55
2023-04-25T03:51:44.785Z,77.45
2023-04-25T03:52:35.652Z,77.45
2023-04-25T03:53:26.585Z,77.45
2023-04-25T03:54:17.416Z,77.45
2023-04-25T03:55:08.319Z,77.35
2023-04-25T03:55:59.212Z,77.25
2023-04-25T03:56:50.069Z,77.25
2023-04-25T03:57:40.956Z,77.04
2023-04-25T03:58:31.848Z,76.83
2023-04-25T03:59:22.749Z,76.63
2023-04-25T04:00:13.619Z,76.53
2023-04-25T04:01:04.469Z,76.42
2023-04-25T04:01:55.366Z,76.11
2023-04-25T04:02:46.340Z,76.15
2023-04-25T04:03:37.560Z,75.94
2023-04-25T04:04:28.308Z,75.84
2023-04-25T04:05:18.834Z,75.94
2023-04-25T04:06:09.736Z,75.84
2023-04-25T04:07:00.630Z,75.73
2023-04-25T04:07:51.510Z,75.73
2023-04-25T04:08:42.395Z,75.63
2023-04-25T04:09:33.292Z,75.63
2023-04-25T04:10:24.173Z,75.63
2023-04-25T04:11:15.060Z,75.53
2023-04-25T04:12:05.937Z,75.43
2023-04-25T04:12:56.822Z,75.43
2023-04-25T04:13:47.809Z,75.43
2023-04-25T04:14:38.689Z,75.32
2023-04-25T04:15:29.576Z,75.22
2023-04-25T04:16:20.505Z,75.22
2023-04-25T04:17:11.387Z,75.01
2023-04-25T04:18:02.323Z,74.91
2023-04-25T04:18:53.188Z,75.01
2023-04-25T04:19:44.081Z,75.01
2023-04-25T04:20:34.962Z,74.80
2023-04-25T04:21:25.837Z,74.80
2023-04-25T04:22:16.727Z,74.71
2023-04-25T04:23:07.606Z,74.63
2023-04-25T04:23:58.485Z,74.43
2023-04-25T04:24:49.377Z,74.22
2023-04-25T04:25:40.231Z,74.12
2023-04-25T04:26:31.114Z,74.12
2023-04-25T04:27:22.012Z,74.12
2023-04-25T04:28:12.884Z,74.12
2023-04-25T04:29:03.793Z,74.12
2023-04-25T04:29:54.660Z,74.02
2023-04-25T04:30:45.538Z,73.91
2023-04-25T04:31:36.435Z,73.81
2023-04-25T04:32:27.321Z,73.81
2023-04-25T04:33:18.208Z,73.81
2023-04-25T04:34:09.100Z,73.50
2023-04-25T04:34:59.960Z,73.81
2023-04-25T04:35:50.845Z,73.91
2023-04-25T04:36:41.724Z,73.81
2023-04-25T04:37:32.632Z,73.81
2023-04-25T04:38:23.533Z,73.81
2023-04-25T04:39:14.399Z,73.91
2023-04-25T04:40:05.283Z,73.91
2023-04-25T04:40:56.160Z,73.91
2023-04-25T04:41:47.049Z,73.81
2023-04-25T04:42:37.944Z,73.91
2023-04-25T04:43:28.793Z,73.91
2023-04-25T04:44:19.695Z,73.81
2023-04-25T04:45:10.564Z,73.60
2023-04-25T04:46:01.441Z,73.40
2023-04-25T04:46:52.369Z,73.50
2023-04-25T04:47:43.325Z,73.50
2023-04-25T04:48:34.159Z,73.50
2023-04-25T04:49:25.040Z,73.40
2023-04-25T04:50:15.933Z,73.19
2023-04-25T04:51:06.799Z,73.09
2023-04-25T04:51:59.689Z,72.99
2023-04-25T04:52:48.816Z,72.99
2023-04-25T04:53:39.691Z,73.05
2023-04-25T04:54:30.577Z,73.05
2023-04-25T04:55:21.468Z,72.85
2023-04-25T04:56:12.413Z,72.64
2023-04-25T04:57:03.273Z,72.54
2023-04-25T04:57:54.165Z,72.54
2023-04-25T04:58:45.046Z,72.44
2023-04-25T04:59:35.962Z,72.13
2023-04-25T05:00:29.136Z,72.03
2023-04-25T05:01:17.777Z,72.03
2023-04-25T05:02:08.638Z,72.13
2023-04-25T05:02:59.633Z,72.03
2023-04-25T05:03:51.015Z,72.03
2023-04-25T05:04:41.533Z,71.41
2023-04-25T05:05:32.471Z,71.72
2023-04-25T05:06:23.358Z,71.61
2023-04-25T05:07:14.257Z,71.61
2023-04-25T05:08:05.172Z,71.41
2023-04-25T05:08:56.070Z,71.30
2023-04-25T05:09:46.973Z,71.20
2023-04-25T05:10:37.902Z,71.10
2023-04-25T05:11:28.836Z,71.20
2023-04-25T05:12:19.747Z,71.20
2023-04-25T05:13:10.633Z,70.89
2023-04-25T05:14:01.548Z,70.68
2023-04-25T05:14:52.526Z,70.68
2023-04-25T05:15:43.421Z,70.68
2023-04-25T05:16:34.372Z,70.68
2023-04-25T05:17:25.300Z,70.79
2023-04-25T05:18:16.178Z,70.79
2023-04-25T05:19:07.070Z,70.79
2023-04-25T05:19:57.972Z,70.58
2023-04-25T05:20:48.879Z,70.28
2023-04-25T05:21:39.774Z,70.28
2023-04-25T05:22:30.685Z,70.28
2023-04-25T05:23:21.588Z,70.37
2023-04-25T05:24:12.539Z,70.48
2023-04-25T05:25:03.425Z,70.48
2023-04-25T05:25:54.332Z,70.28
2023-04-25T05:26:45.234Z,70.48
2023-04-25T05:27:36.170Z,70.48
2023-04-25T05:28:27.062Z,70.48
2023-04-25T05:29:17.965Z,70.58
2023-04-25T05:30:08.890Z,70.68
2023-04-25T05:30:59.789Z,70.68
2023-04-25T05:31:50.737Z,70.58
2023-04-25T05:32:41.602Z,70.58
2023-04-25T05:33:32.531Z,70.58
2023-04-25T05:34:23.425Z,70.68
2023-04-25T05:35:14.339Z,70.68
2023-04-25T05:36:05.210Z,70.79
2023-04-25T05:36:56.078Z,70.89
2023-04-25T05:37:46.986Z,70.89
2023-04-25T05:38:37.850Z,71.00
2023-04-25T05:39:28.775Z,71.10
2023-04-25T05:40:19.649Z,71.20
2023-04-25T05:41:10.521Z,71.30
2023-04-25T05:42:01.430Z,71.41
2023-04-25T05:42:52.320Z,71.48
2023-04-25T05:43:43.190Z,71.58
2023-04-25T05:44:34.100Z,71.78
2023-04-25T05:45:25.005Z,71.89
2023-04-25T05:46:15.900Z,71.99
2023-04-25T05:47:06.787Z,72.20
2023-04-25T05:47:57.810Z,72.61
2023-04-25T05:48:48.664Z,72.81
2023-04-25T05:49:39.580Z,73.02
2023-04-25T05:50:30.501Z,73.23
2023-04-25T05:51:21.433Z,73.43
2023-04-25T05:52:12.341Z,73.50
2023-04-25T05:53:03.282Z,73.81
2023-04-25T05:53:54.261Z,74.12
2023-04-25T05:54:45.222Z,74.33
2023-04-25T05:55:36.129Z,74.53
2023-04-25T05:56:27.075Z,74.74
2023-04-25T05:57:17.978Z,74.74
2023-04-25T05:58:08.899Z,74.74
2023-04-25T05:58:59.812Z,74.74
2023-04-25T05:59:50.711Z,74.95
2023-04-25T06:00:41.626Z,75.05
2023-04-25T06:01:32.517Z,75.15
2023-04-25T06:02:23.747Z,75.25
2023-04-25T06:03:15.754Z,75.05
2023-04-25T06:04:05.133Z,74.63
2023-04-25T06:04:55.831Z,74.53
2023-04-25T06:05:46.884Z,74.53
2023-04-25T06:06:37.741Z,74.53
2023-04-25T06:07:28.658Z,74.57
2023-04-25T06:08:19.561Z,74.67
2023-04-25T06:09:11.423Z,74.77
2023-04-25T06:10:01.110Z,74.88
2023-04-25T06:10:52.000Z,74.88
2023-04-25T06:11:42.987Z,74.88
2023-04-25T06:12:33.850Z,74.98
2023-04-25T06:13:24.783Z,75.08
2023-04-25T06:14:15.680Z,75.18
2023-04-25T06:15:23.850Z,75.18
2023-04-25T06:15:58.575Z,75.08
2023-04-25T06:16:48.213Z,75.08
2023-04-25T06:17:39.145Z,74.98
2023-04-25T06:18:30.055Z,74.88
2023-04-25T06:19:20.981Z,74.88
2023-04-25T06:20:11.873Z,74.88
2023-04-25T06:21:02.791Z,74.88
2023-04-25T06:21:53.724Z,74.57
2023-04-25T06:22:44.641Z,74.67
2023-04-25T06:23:35.550Z,74.57
2023-04-25T06:24:26.438Z,74.57
2023-04-25T06:25:17.359Z,74.57
2023-04-25T06:26:08.273Z,74.57
2023-04-25T06:26:59.242Z,74.46
2023-04-25T06:27:50.181Z,74.46
2023-04-25T06:28:41.075Z,74.12
2023-04-25T06:29:32.020Z,73.81
2023-04-25T06:30:22.911Z,73.74
2023-04-25T06:31:13.880Z,73.81
2023-04-25T06:32:04.781Z,73.85
2023-04-25T06:32:55.700Z,73.71
2023-04-25T06:33:46.585Z,73.71
2023-04-25T06:34:37.488Z,73.50
2023-04-25T06:35:28.403Z,73.64
2023-04-25T06:36:19.307Z,73.61
2023-04-25T06:37:10.232Z,73.71
2023-04-25T06:38:01.121Z,73.85
2023-04-25T06:38:52.225Z,74.02
2023-04-25T06:39:43.215Z,74.12
2023-04-25T06:40:34.110Z,74.22
2023-04-25T06:41:25.021Z,74.12
2023-04-25T06:42:15.941Z,74.12
2023-04-25T06:43:06.857Z,74.02
2023-04-25T06:43:57.772Z,74.02
2023-04-25T06:44:48.695Z,74.16
2023-04-25T06:45:39.597Z,74.36
2023-04-25T06:46:30.617Z,74.57
2023-04-25T06:47:21.587Z,74.67
2023-04-25T06:48:12.463Z,74.88
2023-04-25T06:49:03.353Z,74.98
2023-04-25T06:49:54.292Z,75.08
2023-04-25T06:50:45.180Z,75.29
2023-04-25T06:51:36.109Z,75.39
2023-04-25T06:52:27.008Z,75.49
2023-04-25T06:53:17.923Z,75.60
2023-04-25T06:54:08.858Z,75.70
2023-04-25T06:54:59.766Z,75.70
2023-04-25T06:55:50.664Z,75.81
2023-04-25T06:56:41.569Z,75.90
2023-04-25T06:57:32.508Z,76.01
2023-04-25T06:58:23.393Z,76.01
2023-04-25T06:59:14.332Z,75.97
2023-04-25T07:00:05.244Z,76.07
2023-04-25T07:00:56.219Z,76.07
2023-04-25T07:01:47.135Z,76.07
2023-04-25T07:02:38.420Z,76.18
2023-04-25T07:03:29.265Z,76.28
2023-04-25T07:04:20.593Z,76.28
2023-04-25T07:05:11.133Z,75.97
2023-04-25T07:06:02.041Z,75.15
2023-04-25T07:06:52.978Z,75.25
2023-04-25T07:07:43.864Z,75.25
2023-04-25T07:08:34.775Z,75.15
2023-04-25T07:09:25.693Z,75.25
2023-04-25T07:10:16.590Z,75.35
2023-04-25T07:11:07.489Z,75.56
2023-04-25T07:11:58.414Z,75.77
2023-04-25T07:12:49.338Z,75.67
2023-04-25T07:13:40.251Z,75.35
2023-04-25T07:14:31.213Z,75.42
2023-04-25T07:15:22.129Z,75.42
2023-04-25T07:16:13.082Z,75.52
2023-04-25T07:17:04.062Z,75.12
2023-04-25T07:17:55.001Z,75.32
2023-04-25T07:18:45.922Z,75.42
2023-04-25T07:19:36.857Z,75.63
2023-04-25T07:20:27.817Z,75.52
2023-04-25T07:21:18.720Z,75.22
2023-04-25T07:22:09.685Z,75.29
2023-04-25T07:23:00.565Z,75.18
2023-04-25T07:23:51.466Z,75.18
2023-04-25T07:24:42.395Z,75.39
2023-04-25T07:25:33.297Z,75.49
2023-04-25T07:26:24.203Z,75.49
2023-04-25T07:27:15.138Z,75.29
2023-04-25T07:28:06.047Z,75.15
2023-04-25T07:28:56.944Z,74.43
2023-04-25T07:29:47.870Z,74.33
2023-04-25T07:30:38.772Z,74.22
2023-04-25T07:31:29.725Z,74.22
2023-04-25T07:32:20.693Z,74.43
2023-04-25T07:33:11.588Z,74.53
2023-04-25T07:34:02.496Z,74.53
2023-04-25T07:34:53.390Z,74.43
2023-04-25T07:35:44.313Z,74.02
2023-04-25T07:36:35.267Z,73.61
2023-04-25T07:37:26.121Z,73.71
2023-04-25T07:38:17.074Z,73.81
2023-04-25T07:39:07.988Z,73.91
2023-04-25T07:39:58.929Z,73.91
2023-04-25T07:40:49.809Z,73.81
2023-04-25T07:41:40.732Z,73.91
2023-04-25T07:42:31.630Z,73.91
2023-04-25T07:43:22.576Z,73.81
2023-04-25T07:44:13.520Z,73.61
2023-04-25T07:45:04.451Z,73.57
2023-04-25T07:45:55.406Z,73.16
2023-04-25T07:46:46.254Z,72.96
2023-04-25T07:47:37.277Z,73.06
2023-04-25T07:48:28.160Z,72.96
2023-04-25T07:49:19.098Z,72.75
2023-04-25T07:50:10.008Z,72.44
2023-04-25T07:51:00.939Z,72.03
2023-04-25T07:51:51.875Z,71.28
2023-04-25T07:52:42.823Z,71.17
2023-04-25T07:53:33.763Z,71.04
2023-04-25T07:54:24.701Z,70.63
2023-04-25T07:55:15.646Z,70.22
2023-04-25T07:56:06.571Z,69.91
2023-04-25T07:56:57.498Z,69.47
2023-04-25T07:57:48.431Z,68.85
2023-04-25T07:58:39.369Z,68.75
2023-04-25T07:59:30.491Z,68.85
2023-04-25T08:00:21.400Z,68.96
2023-04-25T08:01:12.310Z,68.75
2023-04-25T08:02:03.248Z,68.75
2023-04-25T08:02:54.329Z,68.96
2023-04-25T08:03:45.579Z,68.92
2023-04-25T08:04:36.497Z,68.62
2023-04-25T08:05:27.004Z,68.30
2023-04-25T08:06:18.119Z,68.30
2023-04-25T08:07:09.049Z,67.86
2023-04-25T08:07:59.985Z,67.66
2023-04-25T08:08:51.219Z,67.35
2023-04-25T08:09:41.865Z,67.25
2023-04-25T08:10:32.801Z,67.25
2023-04-25T08:11:23.760Z,67.22
2023-04-25T08:12:14.678Z,67.02
2023-04-25T08:13:05.604Z,66.81
2023-04-25T08:13:56.536Z,66.40
2023-04-25T08:14:47.464Z,66.50
2023-04-25T08:15:38.416Z,66.19
2023-04-25T08:16:29.586Z,65.92
2023-04-25T08:17:20.524Z,66.22
2023-04-25T08:18:11.581Z,66.12
2023-04-25T08:19:02.502Z,66.22
2023-04-25T08:19:53.419Z,66.02
2023-04-25T08:20:44.321Z,65.81
2023-04-25T08:21:35.275Z,65.81
2023-04-25T08:22:26.177Z,66.22
2023-04-25T08:23:17.105Z,65.51
2023-04-25T08:24:08.019Z,65.30
2023-04-25T08:24:58.917Z,64.92
2023-04-25T08:25:49.846Z,65.12
2023-04-25T08:26:40.744Z,65.64
2023-04-25T08:27:31.700Z,65.74
2023-04-25T08:28:22.607Z,65.77
2023-04-25T08:29:13.528Z,66.08
2023-04-25T08:30:04.463Z,66.49
2023-04-25T08:30:55.418Z,67.00
2023-04-25T08:31:46.496Z,67.44
2023-04-25T08:32:37.499Z,68.48
2023-04-25T08:33:28.506Z,68.88
2023-04-25T08:34:19.399Z,70.32
2023-04-25T08:35:10.317Z,71.04
2023-04-25T08:36:01.206Z,71.69
2023-04-25T08:36:52.124Z,72.31
2023-04-25T08:37:43.036Z,72.82
2023-04-25T08:38:33.974Z,73.02
2023-04-25T08:39:24.905Z,73.13
2023-04-25T08:40:15.861Z,73.54
2023-04-25T08:41:06.767Z,73.74
2023-04-25T08:41:57.705Z,73.91
2023-04-25T08:42:48.643Z,73.91
2023-04-25T08:43:39.588Z,73.71
2023-04-25T08:44:30.535Z,73.71
2023-04-25T08:45:21.473Z,73.47
2023-04-25T08:46:12.444Z,73.16
2023-04-25T08:47:03.515Z,72.65
2023-04-25T08:47:54.496Z,72.14
2023-04-25T08:48:45.455Z,71.90
2023-04-25T08:49:36.602Z,71.69
2023-04-25T08:50:27.555Z,71.48
2023-04-25T08:51:19.808Z,71.39
2023-04-25T08:52:09.536Z,71.15
2023-04-25T08:53:00.573Z,71.15
2023-04-25T08:53:54.159Z,70.73
2023-04-25T08:54:43.580Z,69.37
2023-04-25T08:55:33.425Z,68.96
2023-04-25T08:56:24.360Z,68.65
2023-04-25T08:57:15.285Z,68.76
2023-04-25T08:58:06.225Z,68.35
2023-04-25T08:58:57.190Z,67.94
2023-04-25T08:59:48.148Z,68.45
2023-04-25T09:00:39.192Z,68.24
2023-04-25T09:01:30.161Z,67.52
2023-04-25T09:02:21.177Z,66.91
2023-04-25T09:03:12.342Z,67.11
2023-04-25T09:04:03.420Z,67.52
2023-04-25T09:04:54.317Z,68.04
2023-04-25T09:05:45.228Z,67.52
2023-04-25T09:06:36.152Z,66.30
2023-04-25T09:07:27.055Z,65.99
2023-04-25T09:08:18.287Z,65.27
2023-04-25T09:09:09.245Z,65.17
2023-04-25T09:09:59.733Z,65.20
2023-04-25T09:10:50.641Z,64.89
2023-04-25T09:11:41.586Z,64.59
2023-04-25T09:12:32.477Z,64.17
2023-04-25T09:13:23.413Z,64.59
2023-04-25T09:14:14.318Z,64.79
2023-04-25T09:15:05.313Z,64.79
2023-04-25T09:15:56.198Z,64.38
2023-04-25T09:16:47.334Z,64.38
2023-04-25T09:17:38.206Z,64.35
2023-04-25T09:18:30.742Z,64.35
2023-04-25T09:19:20.073Z,63.22
2023-04-25T09:20:10.953Z,62.71
2023-04-25T09:21:04.209Z,62.81
2023-04-25T09:21:53.867Z,61.99
2023-04-25T09:22:43.563Z,61.89
2023-04-25T09:23:34.492Z,61.79
2023-04-25T09:24:25.418Z,61.69
2023-04-25T09:25:16.350Z,61.99
2023-04-25T09:26:07.237Z,60.97
2023-04-25T09:26:58.166Z,61.27
2023-04-25T09:27:49.053Z,61.20
2023-04-25T09:28:39.999Z,61.71
2023-04-25T09:29:30.895Z,62.23
2023-04-25T09:30:21.813Z,62.23
2023-04-25T09:31:12.769Z,62.02
2023-04-25T09:32:03.716Z,62.23
2023-04-25T09:32:54.696Z,61.92
2023-04-25T09:33:45.555Z,61.30
2023-04-25T09:34:36.492Z,61.10
2023-04-25T09:35:27.434Z,60.49
2023-04-25T09:36:18.354Z,60.89
2023-04-25T09:37:09.283Z,61.00
2023-04-25T09:38:00.197Z,61.10
2023-04-25T09:38:51.117Z,60.69
2023-04-25T09:39:42.085Z,60.86
2023-04-25T09:40:32.992Z,60.86
2023-04-25T09:41:23.922Z,59.30
2023-04-25T09:42:14.865Z,58.86
2023-04-25T09:43:05.801Z,58.97
2023-04-25T09:43:56.892Z,58.63
2023-04-25T09:44:47.863Z,58.40
2023-04-25T09:45:38.884Z,58.29
2023-04-25T09:46:29.762Z,58.09
2023-04-25T09:47:20.750Z,57.97
2023-04-25T09:48:11.683Z,57.86
2023-04-25T09:49:02.629Z,57.84
2023-04-25T09:49:53.647Z,57.43
2023-04-25T09:50:44.631Z,56.51
2023-04-25T09:51:35.553Z,56.40
2023-04-25T09:52:26.601Z,56.79
2023-04-25T09:53:18.329Z,56.48
2023-04-25T09:54:08.632Z,56.68
2023-04-25T09:54:59.595Z,55.74
2023-04-25T09:55:50.521Z,56.15
2023-04-25T09:56:41.434Z,55.23
2023-04-25T09:57:32.389Z,55.33
2023-04-25T09:58:23.318Z,55.30
2023-04-25T09:59:14.270Z,55.30
2023-04-25T10:00:05.203Z,55.10
2023-04-25T10:00:56.182Z,54.49
2023-04-25T10:01:47.186Z,54.69
2023-04-25T10:02:38.225Z,55.13
2023-04-25T10:03:29.250Z,54.92
2023-04-25T10:04:20.291Z,54.61
2023-04-25T10:05:11.346Z,54.92
2023-04-25T10:06:02.422Z,55.13
2023-04-25T10:06:53.350Z,54.54
2023-04-25T10:07:44.270Z,54.95
2023-04-25T10:08:35.187Z,54.54
2023-04-25T10:09:26.165Z,54.05
2023-04-25T10:10:17.078Z,54.26
2023-04-25T10:11:08.037Z,54.54
2023-04-25T10:11:58.956Z,54.54
2023-04-25T10:12:49.890Z,54.13
2023-04-25T10:13:40.836Z,54.64
2023-04-25T10:14:31.854Z,55.15
2023-04-25T10:15:22.741Z,55.66
2023-04-25T10:16:13.717Z,55.56
2023-04-25T10:17:04.612Z,55.54
2023-04-25T10:17:55.624Z,55.84
2023-04-25T10:18:46.527Z,56.15
2023-04-25T10:19:37.474Z,55.94
2023-04-25T10:20:28.538Z,55.94
2023-04-25T10:21:19.376Z,56.17
2023-04-25T10:22:10.305Z,56.17
2023-04-25T10:23:01.246Z,56.38
2023-04-25T10:23:52.385Z,56.27
2023-04-25T10:24:43.353Z,56.38
2023-04-25T10:25:34.283Z,56.30
2023-04-25T10:26:25.209Z,56.51
2023-04-25T10:27:16.134Z,56.81
2023-04-25T10:28:07.056Z,57.15
2023-04-25T10:28:58.005Z,57.35
2023-04-25T10:29:48.898Z,56.23
2023-04-25T10:30:39.809Z,56.76
2023-04-25T10:31:30.831Z,56.87
2023-04-25T10:32:21.902Z,57.30
2023-04-25T10:33:12.419Z,57.92
2023-04-25T10:34:03.348Z,58.84
2023-04-25T10:34:54.269Z,59.78
2023-04-25T10:35:45.293Z,61.01
2023-04-25T10:36:36.135Z,61.63
2023-04-25T10:37:27.101Z,62.37
2023-04-25T10:38:18.020Z,62.78
2023-04-25T10:39:08.944Z,63.43
2023-04-25T10:39:59.826Z,63.43
2023-04-25T10:40:50.738Z,63.43
2023-04-25T10:41:41.666Z,63.66
2023-04-25T10:42:32.627Z,63.87
2023-04-25T10:43:23.503Z,64.17
2023-04-25T10:44:14.404Z,64.38
2023-04-25T10:45:05.389Z,64.59
2023-04-25T10:45:56.314Z,64.79
2023-04-25T10:46:47.354Z,64.79
2023-04-25T10:47:38.307Z,64.89
2023-04-25T10:48:29.229Z,65.17
2023-04-25T10:49:20.170Z,64.94
2023-04-25T10:50:11.179Z,64.42
2023-04-25T10:51:02.134Z,64.09
2023-04-25T10:51:55.513Z,63.78
2023-04-25T10:52:43.633Z,63.47
2023-04-25T10:53:34.578Z,62.76
2023-04-25T10:54:25.461Z,62.17
2023-04-25T10:55:16.432Z,62.07
2023-04-25T10:56:08.194Z,61.96
2023-04-25T10:56:58.014Z,62.07
2023-04-25T10:57:48.924Z,62.30
2023-04-25T10:58:39.834Z,62.81
2023-04-25T10:59:30.764Z,63.02
2023-04-25T11:00:21.764Z,63.22
2023-04-25T11:01:12.825Z,63.56
2023-04-25T11:02:04.043Z,63.97
2023-04-25T11:02:55.192Z,64.59
2023-04-25T11:03:46.431Z,65.30
2023-04-25T11:04:37.428Z,65.84
2023-04-25T11:05:27.975Z,65.95
2023-04-25T11:06:18.852Z,66.36
2023-04-25T11:07:09.747Z,66.87
2023-04-25T11:08:07.952Z,66.97
2023-04-25T11:08:52.880Z,67.08
2023-04-25T11:09:42.202Z,66.77
2023-04-25T11:10:33.107Z,66.56
2023-04-25T11:11:24.034Z,66.16
2023-04-25T11:12:14.935Z,66.16
2023-04-25T11:13:05.895Z,66.22
2023-04-25T11:13:56.800Z,65.92
2023-04-25T11:14:47.726Z,65.27
2023-04-25T11:15:38.702Z,64.94
2023-04-25T11:16:29.622Z,64.80
2023-04-25T11:17:20.603Z,64.16
2023-04-25T11:18:11.581Z,63.21
2023-04-25T11:19:02.479Z,62.18
2023-04-25T11:19:53.473Z,61.44
2023-04-25T11:20:44.372Z,61.31
2023-04-25T11:21:35.417Z,60.39